createdAt,value
2022-12-04T00:01:40.543Z,11.57
2022-12-04T00:04:44.563Z,10.30
2022-12-04T00:07:47.744Z,11.23
2022-12-04T00:10:50.328Z,10.60
2022-12-04T00:13:53.423Z,10.43
2022-12-04T00:16:56.172Z,10.57
2022-12-04T00:20:00.215Z,11.80
2022-12-04T00:23:03.254Z,11.93
2022-12-04T00:26:07.955Z,11.32
2022-12-04T00:29:10.611Z,10.90
2022-12-04T00:32:13.431Z,11.20
2022-12-04T00:35:17.694Z,11.17
2022-12-04T00:38:20.396Z,10.40
2022-12-04T00:41:24.935Z,9.70
2022-12-04T00:44:27.671Z,9.73
2022-12-04T00:47:30.523Z,10.33
2022-12-04T00:50:34.603Z,10.77
2022-12-04T00:53:37.583Z,10.03
2022-12-04T00:56:40.430Z,9.88
2022-12-04T00:59:43.144Z,9.90
2022-12-04T01:02:46.768Z,9.63
2022-12-04T01:05:50.828Z,9.00
2022-12-04T01:08:54.660Z,9.97
2022-12-04T01:14:59.812Z,9.30
2022-12-04T01:18:02.668Z,8.60
2022-12-04T01:21:07.106Z,8.87
2022-12-04T01:24:09.955Z,9.27
2022-12-04T01:27:12.993Z,11.43
2022-12-04T01:30:15.886Z,9.98
2022-12-04T01:33:18.615Z,9.45
2022-12-04T01:36:24.947Z,10.27
2022-12-04T01:39:27.654Z,9.37
2022-12-04T01:42:30.733Z,10.03
2022-12-04T01:45:39.973Z,10.02
2022-12-04T01:48:45.860Z,9.80
2022-12-04T01:51:53.480Z,9.30
2022-12-04T01:54:58.933Z,10.43
2022-12-04T01:58:02.176Z,9.93
2022-12-04T02:01:09.109Z,9.02
2022-12-04T02:04:12.239Z,9.97
2022-12-04T02:07:16.424Z,8.90
2022-12-04T02:10:24.446Z,8.90
2022-12-04T02:13:30.616Z,9.77
2022-12-04T02:16:37.844Z,9.87
2022-12-04T02:19:56.086Z,10.17
2022-12-04T02:23:21.429Z,9.93
2022-12-04T02:26:41.488Z,9.57
2022-12-04T02:29:50.244Z,9.83
2022-12-04T02:32:59.983Z,10.27
2022-12-04T02:36:06.570Z,9.83
2022-12-04T02:39:14.634Z,10.57
2022-12-04T02:42:21.097Z,9.73
2022-12-04T02:45:28.724Z,9.93
2022-12-04T02:48:33.797Z,9.33
2022-12-04T02:51:38.763Z,10.00
2022-12-04T02:54:44.447Z,11.07
2022-12-04T02:57:50.334Z,10.20
2022-12-04T03:00:56.153Z,10.70
2022-12-04T03:07:33.125Z,11.63
2022-12-04T03:10:39.481Z,10.90
2022-12-04T03:13:45.906Z,10.50
2022-12-04T03:16:52.717Z,10.80
2022-12-04T03:19:58.335Z,11.07
2022-12-04T03:23:05.315Z,10.13
2022-12-04T03:26:12.889Z,10.60
2022-12-04T03:29:17.348Z,11.50
2022-12-04T03:32:25.183Z,10.80
2022-12-04T03:35:30.865Z,12.30
2022-12-04T03:38:37.492Z,10.97
2022-12-04T03:41:50.299Z,11.50
2022-12-04T03:44:56.458Z,11.37
2022-12-04T03:48:05.649Z,11.73
2022-12-04T03:51:13.141Z,12.20
2022-12-04T03:54:17.766Z,11.30
2022-12-04T03:57:24.097Z,11.80
2022-12-04T04:00:27.272Z,11.93
2022-12-04T04:03:34.760Z,12.02
2022-12-04T04:06:40.682Z,12.70
2022-12-04T04:09:46.702Z,11.47
2022-12-04T04:13:13.410Z,12.63
2022-12-04T04:16:35.871Z,12.00
2022-12-04T04:19:58.083Z,11.30
2022-12-04T04:23:20.865Z,10.97
2022-12-04T04:26:24.502Z,11.53
2022-12-04T04:29:28.655Z,11.23
2022-12-04T04:32:36.638Z,11.10
2022-12-04T04:35:47.646Z,11.63
2022-12-04T04:38:57.445Z,11.57
2022-12-04T04:42:04.409Z,11.77
2022-12-04T04:45:10.339Z,10.37
2022-12-04T04:48:17.220Z,11.93
2022-12-04T04:51:21.896Z,10.47
2022-12-04T04:54:24.976Z,10.10
2022-12-04T04:57:29.225Z,11.18
2022-12-04T05:00:31.908Z,9.93
2022-12-04T05:03:35.504Z,11.00
2022-12-04T05:06:39.845Z,10.77
2022-12-04T05:09:42.635Z,9.53
2022-12-04T05:12:45.525Z,10.83
2022-12-04T05:15:57.481Z,8.63
2022-12-04T05:19:19.214Z,10.23
2022-12-04T05:22:26.086Z,9.10
2022-12-04T05:25:28.845Z,9.37
2022-12-04T05:28:31.683Z,10.20
2022-12-04T05:31:34.464Z,10.33
2022-12-04T05:34:37.243Z,10.10
2022-12-04T05:37:42.083Z,8.67
2022-12-04T05:40:44.860Z,9.57
2022-12-04T05:43:47.451Z,9.80
2022-12-04T05:46:50.168Z,8.50
2022-12-04T05:49:53.594Z,8.87
2022-12-04T05:52:57.938Z,9.98
2022-12-04T05:56:04.660Z,9.50
2022-12-04T05:59:07.372Z,10.60
2022-12-04T06:02:10.272Z,9.70
2022-12-04T06:05:13.170Z,8.27
2022-12-04T06:08:17.512Z,10.27
2022-12-04T06:11:23.047Z,10.33
2022-12-04T06:14:25.947Z,10.03
2022-12-04T06:17:28.768Z,8.63
2022-12-04T06:20:31.416Z,8.90
2022-12-04T06:23:35.584Z,8.93
2022-12-04T06:26:52.041Z,9.83
2022-12-04T06:30:01.162Z,8.50
2022-12-04T06:33:03.858Z,8.73
2022-12-04T06:36:08.355Z,9.43
2022-12-04T06:39:17.023Z,8.40
2022-12-04T06:42:21.754Z,8.70
2022-12-04T06:45:32.483Z,8.60
2022-12-04T06:48:35.986Z,9.10
2022-12-04T06:51:40.633Z,9.20
2022-12-04T06:54:43.448Z,8.97
2022-12-04T06:57:46.194Z,9.00
2022-12-04T07:00:50.427Z,9.93
2022-12-04T07:03:53.539Z,9.23
2022-12-04T07:06:56.430Z,10.40
2022-12-04T07:09:59.251Z,10.52
2022-12-04T07:13:02.365Z,9.13
2022-12-04T07:16:08.439Z,10.30
2022-12-04T07:19:11.705Z,9.37
2022-12-04T07:22:14.580Z,9.27
2022-12-04T07:25:17.290Z,8.13
2022-12-04T07:28:20.145Z,8.77
2022-12-04T07:31:25.986Z,9.43
2022-12-04T07:34:28.936Z,9.10
2022-12-04T07:37:31.973Z,9.07
2022-12-04T07:40:35.253Z,9.63
2022-12-04T07:43:38.109Z,9.48
2022-12-04T07:46:42.171Z,9.82
2022-12-04T07:49:45.146Z,9.43
2022-12-04T07:52:48.032Z,9.88
2022-12-04T07:55:53.318Z,10.15
2022-12-04T07:58:56.152Z,9.87
2022-12-04T08:02:00.316Z,10.00
2022-12-04T08:05:03.062Z,9.77
2022-12-04T08:08:06.337Z,9.90
2022-12-04T08:11:10.207Z,9.15
2022-12-04T08:14:13.661Z,9.20
2022-12-04T08:17:18.381Z,9.48
2022-12-04T08:20:21.373Z,9.53
2022-12-04T08:23:24.283Z,10.20
2022-12-04T08:26:29.203Z,10.27
2022-12-04T08:29:31.879Z,9.97
2022-12-04T08:32:36.279Z,9.83
2022-12-04T08:35:39.104Z,10.07
2022-12-04T08:38:42.127Z,9.63
2022-12-04T08:41:44.733Z,9.05
2022-12-04T08:44:48.025Z,9.93
2022-12-04T08:47:52.690Z,9.95
2022-12-04T08:50:56.615Z,8.87
2022-12-04T08:54:01.947Z,9.40
2022-12-04T08:57:04.874Z,9.00
2022-12-04T09:00:09.196Z,9.03
2022-12-04T09:03:15.563Z,10.10
2022-12-04T09:06:18.796Z,9.70
2022-12-04T09:09:22.506Z,9.80
2022-12-04T09:12:25.102Z,10.07
2022-12-04T09:15:28.387Z,9.87
2022-12-04T09:18:32.720Z,10.90
2022-12-04T09:21:36.912Z,8.87
2022-12-04T09:24:39.925Z,10.40
2022-12-04T09:27:43.520Z,10.00
2022-12-04T09:30:46.421Z,9.50
2022-12-04T09:33:51.093Z,9.43
2022-12-04T09:36:54.046Z,11.00
2022-12-04T09:39:57.152Z,9.15
2022-12-04T09:43:04.544Z,9.38
2022-12-04T09:46:11.618Z,9.40
2022-12-04T09:49:19.538Z,9.73
2022-12-04T09:52:32.136Z,10.37
2022-12-04T09:55:38.723Z,10.67
2022-12-04T09:58:43.225Z,10.70
2022-12-04T10:01:48.461Z,11.30
2022-12-04T10:04:52.982Z,11.67
2022-12-04T10:08:05.098Z,10.77
2022-12-04T10:11:14.298Z,10.87
2022-12-04T10:14:32.022Z,11.17
2022-12-04T10:18:00.112Z,11.60
2022-12-04T10:21:30.772Z,11.60
2022-12-04T10:24:39.504Z,10.67
2022-12-04T10:27:43.864Z,10.90
2022-12-04T10:30:46.983Z,11.97
2022-12-04T10:33:53.332Z,11.07
2022-12-04T10:37:07.299Z,10.87
2022-12-04T10:40:15.030Z,11.40
2022-12-04T10:43:24.744Z,11.43
2022-12-04T10:46:29.797Z,10.97
2022-12-04T10:49:34.838Z,11.60
2022-12-04T10:52:38.881Z,11.23
2022-12-04T10:55:41.547Z,11.40
2022-12-04T10:58:44.438Z,10.60
2022-12-04T11:01:47.309Z,12.10
2022-12-04T11:04:56.956Z,12.63
2022-12-04T11:08:02.334Z,9.93
2022-12-04T11:11:08.006Z,11.57
2022-12-04T11:14:16.417Z,10.97
2022-12-04T11:17:20.988Z,10.13
2022-12-04T11:20:24.978Z,10.60
2022-12-04T11:23:32.428Z,10.77
2022-12-04T11:26:37.235Z,11.17
2022-12-04T11:29:44.470Z,10.53
2022-12-04T11:32:47.968Z,10.57
2022-12-04T11:35:55.600Z,9.65
2022-12-04T11:39:07.429Z,9.60
2022-12-04T11:42:19.497Z,9.63
2022-12-04T11:45:24.044Z,10.03
2022-12-04T11:48:27.295Z,9.63
2022-12-04T11:51:39.501Z,10.10
2022-12-04T11:54:51.335Z,9.37
2022-12-04T11:58:08.160Z,10.00
2022-12-04T12:01:22.051Z,9.30
2022-12-04T12:04:46.535Z,8.68
2022-12-04T12:08:01.893Z,8.70
2022-12-04T12:11:11.742Z,9.70
2022-12-04T12:14:21.666Z,10.47
2022-12-04T12:17:27.413Z,10.17
2022-12-04T12:20:31.802Z,9.00
2022-12-04T12:23:47.648Z,9.13
2022-12-04T12:26:57.093Z,10.20
2022-12-04T12:30:05.195Z,9.87
2022-12-04T12:33:16.061Z,9.40
2022-12-04T12:36:21.643Z,10.53
2022-12-04T12:39:27.105Z,9.23
2022-12-04T12:42:34.002Z,9.37
2022-12-04T12:45:42.603Z,9.07
2022-12-04T12:48:47.609Z,9.70
2022-12-04T12:51:53.989Z,9.97
2022-12-04T12:55:00.475Z,9.27
2022-12-04T12:58:08.608Z,9.97
2022-12-04T13:01:14.968Z,9.17
2022-12-04T13:04:23.580Z,9.37
2022-12-04T13:07:30.850Z,9.20
2022-12-04T13:10:37.319Z,9.77
2022-12-04T13:13:44.659Z,8.23
2022-12-04T13:16:49.959Z,10.67
2022-12-04T13:19:54.653Z,10.43
2022-12-04T13:23:11.997Z,10.00
2022-12-04T13:26:23.939Z,10.17
2022-12-04T13:29:46.762Z,9.90
2022-12-04T13:33:25.060Z,9.70
2022-12-04T13:36:38.116Z,9.93
2022-12-04T13:40:19.712Z,10.00
2022-12-04T13:43:45.569Z,10.13
2022-12-04T13:46:54.252Z,10.57
2022-12-04T13:50:25.037Z,10.63
2022-12-04T13:53:32.505Z,10.23
2022-12-04T13:56:35.316Z,11.60
2022-12-04T13:59:39.401Z,8.57
2022-12-04T14:02:50.744Z,9.63
2022-12-04T14:05:53.680Z,10.03
2022-12-04T14:08:58.905Z,10.63
2022-12-04T14:12:03.093Z,9.63
2022-12-04T14:15:08.364Z,8.70
2022-12-04T14:18:25.348Z,7.83
2022-12-04T14:21:39.799Z,9.23
2022-12-04T14:24:42.673Z,10.07
2022-12-04T14:27:46.856Z,9.13
2022-12-04T14:31:01.811Z,7.80
2022-12-04T14:34:22.244Z,8.73
2022-12-04T14:37:28.274Z,9.07
2022-12-04T14:40:36.453Z,8.67
2022-12-04T14:43:40.825Z,9.43
2022-12-04T14:46:46.023Z,8.50
2022-12-04T14:50:02.879Z,7.87
2022-12-04T14:53:14.063Z,8.47
2022-12-04T14:56:24.706Z,8.53
2022-12-04T14:59:35.348Z,8.37
2022-12-04T15:02:41.857Z,8.80
2022-12-04T15:05:46.486Z,9.10
2022-12-04T15:08:50.886Z,9.37
2022-12-04T15:12:14.439Z,9.53
2022-12-04T15:15:22.061Z,9.38
2022-12-04T15:18:25.212Z,9.67
2022-12-04T15:21:35.886Z,10.52
2022-12-04T15:24:39.599Z,9.83
2022-12-04T15:30:45.381Z,8.40
2022-12-04T15:33:48.807Z,9.90
2022-12-04T15:36:56.668Z,8.55
2022-12-04T15:40:00.075Z,9.57
2022-12-04T15:43:16.751Z,9.60
2022-12-04T15:46:24.230Z,8.77
2022-12-04T15:49:28.654Z,9.63
2022-12-04T15:52:32.697Z,9.60
2022-12-04T15:55:41.169Z,9.43
2022-12-04T15:58:54.664Z,9.73
2022-12-04T16:01:57.603Z,8.52
2022-12-04T16:05:12.381Z,9.38
2022-12-04T16:08:27.216Z,10.63
2022-12-04T16:11:34.256Z,10.37
2022-12-04T16:14:37.187Z,9.50
2022-12-04T16:17:39.904Z,9.90
2022-12-04T16:20:42.574Z,9.63
2022-12-04T16:23:46.772Z,10.40
2022-12-04T16:26:54.744Z,10.77
2022-12-04T16:29:57.334Z,11.13
2022-12-04T16:32:59.987Z,8.53
2022-12-04T16:36:02.623Z,9.93
2022-12-04T16:39:06.649Z,9.83
2022-12-04T16:42:15.719Z,10.43
2022-12-04T16:45:23.022Z,11.87
2022-12-04T16:48:26.122Z,9.70
2022-12-04T16:51:28.781Z,12.20
2022-12-04T16:54:32.965Z,10.63
2022-12-04T16:57:35.648Z,10.70
2022-12-04T17:00:39.187Z,12.93
2022-12-04T17:03:41.796Z,10.23
2022-12-04T17:06:44.942Z,11.47
2022-12-04T17:09:49.012Z,11.25
2022-12-04T17:12:53.476Z,11.90
2022-12-04T17:15:56.443Z,12.43
2022-12-04T17:18:59.381Z,12.63
2022-12-04T17:22:02.214Z,13.63
2022-12-04T17:25:07.783Z,13.88
2022-12-04T17:28:10.501Z,12.97
2022-12-04T17:31:15.819Z,13.23
2022-12-04T17:34:18.533Z,13.43
2022-12-04T17:37:21.566Z,12.93
2022-12-04T17:40:25.516Z,13.65
2022-12-04T17:43:29.422Z,14.17
2022-12-04T17:49:35.030Z,13.97
2022-12-04T17:52:37.673Z,13.82
2022-12-04T17:55:41.676Z,12.90
2022-12-04T17:58:45.193Z,13.50
2022-12-04T18:01:48.885Z,14.85
2022-12-04T18:04:51.453Z,13.00
2022-12-04T18:07:54.256Z,15.40
2022-12-04T18:10:58.491Z,15.30
2022-12-04T18:14:06.004Z,12.53
2022-12-04T18:17:13.017Z,12.00
2022-12-04T18:20:15.698Z,13.20
2022-12-04T18:23:18.776Z,14.00
2022-12-04T18:26:24.510Z,13.88
2022-12-04T18:29:27.752Z,13.87
2022-12-04T18:32:30.522Z,13.45
2022-12-04T18:35:33.158Z,14.37
2022-12-04T18:38:36.216Z,12.87
2022-12-04T18:41:40.346Z,12.57
2022-12-04T18:44:42.927Z,13.57
2022-12-04T18:47:45.650Z,11.57
2022-12-04T18:50:48.867Z,12.70
2022-12-04T18:53:53.133Z,10.45
2022-12-04T18:56:57.328Z,10.93
2022-12-04T19:00:00.174Z,11.13
2022-12-04T19:03:04.657Z,12.32
2022-12-04T19:06:08.239Z,11.60
2022-12-04T19:09:12.764Z,12.75
2022-12-04T19:12:17.248Z,11.87
2022-12-04T19:15:20.289Z,12.73
2022-12-04T19:18:23.107Z,11.57
2022-12-04T19:21:26.225Z,12.27
2022-12-04T19:24:29.242Z,13.75
2022-12-04T19:27:33.899Z,13.20
2022-12-04T19:30:36.754Z,15.53
2022-12-04T19:33:39.399Z,14.57
2022-12-04T19:36:42.651Z,13.47
2022-12-04T19:39:45.840Z,13.32
2022-12-04T19:42:50.033Z,14.25
2022-12-04T19:45:52.837Z,13.20
2022-12-04T19:48:58.412Z,14.80
2022-12-04T19:52:01.276Z,15.27
2022-12-04T19:55:03.959Z,14.40
2022-12-04T19:58:07.993Z,14.63
2022-12-04T20:01:13.264Z,14.87
2022-12-04T20:04:15.889Z,14.93
2022-12-04T20:07:18.953Z,14.57
2022-12-04T20:10:22.345Z,15.40
2022-12-04T20:13:26.465Z,13.90
2022-12-04T20:16:31.154Z,13.53
2022-12-04T20:19:34.157Z,12.97
2022-12-04T20:22:36.974Z,13.55
2022-12-04T20:25:39.631Z,14.03
2022-12-04T20:28:43.968Z,14.40
2022-12-04T20:31:47.487Z,13.73
2022-12-04T20:34:50.228Z,12.55
2022-12-04T20:37:53.246Z,13.43
2022-12-04T20:40:55.985Z,13.05
2022-12-04T20:44:02.359Z,13.83
2022-12-04T20:47:05.123Z,13.90
2022-12-04T20:50:09.398Z,14.60
2022-12-04T20:53:12.192Z,14.13
2022-12-04T20:56:15.314Z,14.53
2022-12-04T20:59:21.117Z,13.95
2022-12-04T21:02:24.402Z,14.83
2022-12-04T21:05:27.485Z,14.77
2022-12-04T21:08:47.627Z,14.68
2022-12-04T21:11:52.337Z,14.37
2022-12-04T21:15:14.094Z,13.50
2022-12-04T21:18:16.732Z,12.57
2022-12-04T21:21:22.041Z,13.50
2022-12-04T21:24:26.619Z,12.83
2022-12-04T21:27:29.169Z,13.17
2022-12-04T21:30:33.900Z,13.07
2022-12-04T21:33:37.398Z,13.80
2022-12-04T21:36:40.285Z,12.38
2022-12-04T21:39:43.729Z,12.55
2022-12-04T21:42:48.878Z,11.73
2022-12-04T21:46:02.011Z,13.07
2022-12-04T21:49:09.502Z,12.37
2022-12-04T21:52:12.419Z,12.48
2022-12-04T21:55:15.321Z,12.48
2022-12-04T21:58:18.260Z,12.63
2022-12-04T22:01:24.144Z,12.20
2022-12-04T22:04:26.898Z,12.13
2022-12-04T22:07:29.571Z,12.10
2022-12-04T22:10:32.462Z,12.40
2022-12-04T22:13:35.189Z,12.20
2022-12-04T22:16:42.900Z,10.90
2022-12-04T22:19:45.945Z,10.50
2022-12-04T22:22:48.775Z,10.47
2022-12-04T22:25:51.878Z,9.23
2022-12-04T22:28:54.765Z,10.32
2022-12-04T22:31:58.867Z,10.02
2022-12-04T22:35:01.676Z,9.37
2022-12-04T22:38:04.487Z,9.57
2022-12-04T22:41:08.887Z,8.97
2022-12-04T22:44:11.665Z,10.03
2022-12-04T22:47:15.735Z,8.80
2022-12-04T22:50:18.694Z,8.93
2022-12-04T22:53:21.527Z,8.82
2022-12-04T22:56:26.023Z,9.00
2022-12-04T22:59:28.872Z,9.30
2022-12-04T23:02:33.776Z,8.73
2022-12-04T23:05:36.401Z,9.30
2022-12-04T23:08:40.376Z,9.47
2022-12-04T23:11:43.809Z,9.43
2022-12-04T23:14:46.452Z,8.35
2022-12-04T23:17:50.418Z,9.47
2022-12-04T23:20:53.048Z,8.43
2022-12-04T23:23:56.706Z,9.30
2022-12-04T23:26:59.573Z,11.45
2022-12-04T23:30:02.282Z,10.13
2022-12-04T23:33:06.568Z,8.93
2022-12-04T23:36:11.282Z,9.13
2022-12-04T23:39:14.475Z,9.20
2022-12-04T23:42:17.041Z,10.57
2022-12-04T23:45:19.866Z,8.93
2022-12-04T23:48:24.471Z,8.80
2022-12-04T23:51:27.873Z,9.03
2022-12-04T23:54:34.919Z,9.27
2022-12-04T23:57:37.958Z,9.27
